Stations météo

réclame
Mon MeteoGroup
Elgoibar, Espagne (8036): Température de l'air & dewpoint: 20.04.2018 22:00:00 - 26.04.2018 22:00:00 (CEST)Elgoibar, Espagne (8036): Vitesse du vent & gusts: 20.04.2018 22:00:00 - 26.04.2018 22:00:00 (CEST)Elgoibar, Espagne (8036): Direction du vent: 20.04.2018 22:00:00 - 26.04.2018 22:00:00 (CEST)Elgoibar, Espagne (8036): Quantités de précipitations: 20.04.2018 22:00:00 - 26.04.2018 22:00:00 (CEST)
Date & Time tt [°C] td [°C] ff [km/h] ff [knt] fx [km/h] fx [knt] dd rr [mm]
26.04.2018 22:00:00 10,4 6,6 5 3 9 5 ENE 0,0
26.04.2018 21:00:00 12,3 6,8 5 3 13 7 NNW 0,0
26.04.2018 20:00:00 13,5 7,1 6 4 15 8 N -
26.04.2018 19:00:00 13,8 7,1 6 4 18 10 NNW 0,0
26.04.2018 18:00:00 13,3 6,4 11 6 21 11 N 0,0
26.04.2018 17:00:00 13,6 6,9 11 6 21 11 NNE 0,0
26.04.2018 16:00:00 14,1 7,2 9 5 19 11 N 0,0
26.04.2018 15:00:00 14,0 7,3 8 5 16 8 N 0,0
26.04.2018 14:00:00 14,1 8,1 7 4 12 6 NNE -
26.04.2018 13:00:00 12,7 8,8 2 1 15 8 NW 0,0
26.04.2018 12:00:00 11,1 8,5 9 5 19 10 N 0,0
26.04.2018 11:00:00 11,7 10,0 6 3 9 5 ENE 0,0
26.04.2018 10:00:00 11,3 10,5 0 0 0 0 N 0,0
26.04.2018 09:00:00 10,0 9,2 0 0 0 0 N 0,0
26.04.2018 08:00:00 9,4 8,5 0 0 0 0 N -
26.04.2018 07:00:00 9,5 8,6 0 0 0 0 N 0,0
26.04.2018 06:00:00 9,9 9,0 0 0 0 0 N 0,1
26.04.2018 05:00:00 10,9 10,0 0 0 0 0 N 0,0
26.04.2018 04:00:00 11,1 10,2 0 0 0 0 N 0,1
26.04.2018 03:00:00 11,3 10,4 0 0 0 0 N 0,0
26.04.2018 02:00:00 11,8 10,9 0 0 0 0 N -
26.04.2018 01:00:00 11,9 11,0 0 0 0 0 N 0,5
26.04.2018 00:00:00 12,3 11,2 0 0 0 0 N 0,0
25.04.2018 23:00:00 12,2 11,1 0 0 0 0 N 0,2
25.04.2018 22:00:00 12,3 10,9 0 0 0 0 N 0,6
25.04.2018 21:00:00 12,5 10,4 0 0 0 0 N 0,0
25.04.2018 20:00:00 13,1 9,9 0 0 13 7 NNW -
25.04.2018 19:00:00 13,6 10,0 3 1 18 10 WNW 0,0
25.04.2018 18:00:00 14,1 10,9 1 1 8 4 NNW 0,0
25.04.2018 17:00:00 13,6 11,0 4 2 8 5 N 0,0
25.04.2018 16:00:00 13,2 11,6 1 1 13 7 WNW 0,0
25.04.2018 15:00:00 13,0 11,7 4 2 14 7 NNE 0,0
25.04.2018 14:00:00 12,9 11,6 6 3 14 8 N -
25.04.2018 13:00:00 13,1 11,8 9 5 17 9 N 0,0
25.04.2018 12:00:00 14,1 13,0 3 2 13 7 NE 0,0
25.04.2018 11:00:00 14,0 13,4 5 3 9 5 N 0,0
25.04.2018 10:00:00 13,5 12,9 0 0 3 1 N 0,0
25.04.2018 09:00:00 13,0 12,5 3 2 7 4 ENE 0,0
25.04.2018 08:00:00 12,6 12,0 0 0 0 0 N -
25.04.2018 07:00:00 12,9 12,4 0 0 0 0 N 0,2
25.04.2018 06:00:00 13,0 12,4 0 0 0 0 N 0,1
25.04.2018 05:00:00 13,3 12,7 0 0 0 0 N 0,0
25.04.2018 04:00:00 13,4 12,8 0 0 0 0 N 0,0
25.04.2018 03:00:00 13,5 12,9 0 0 7 4 N 0,0
25.04.2018 02:00:00 13,6 12,8 0 0 8 4 N -
25.04.2018 01:00:00 13,8 13,0 3 2 6 4 NNE 0,0
25.04.2018 00:00:00 14,0 13,1 0 0 6 3 N 0,0
24.04.2018 23:00:00 14,3 13,0 3 2 8 5 NNE 0,0
24.04.2018 22:00:00 14,7 12,9 4 2 12 6 NNE 0,0
24.04.2018 21:00:00 15,1 13,1 6 4 15 8 NNE 0,0
24.04.2018 20:00:00 15,9 13,2 11 6 27 15 N -
24.04.2018 19:00:00 17,5 13,4 11 6 30 16 NNE 0,0
24.04.2018 18:00:00 18,5 13,1 18 10 30 16 N 0,0
24.04.2018 17:00:00 21,6 14,3 9 5 19 10 N 0,0
24.04.2018 16:00:00 22,0 15,4 3 1 16 8 N 0,0
24.04.2018 15:00:00 19,3 13,9 11 6 22 12 N 0,0
24.04.2018 14:00:00 18,2 13,5 12 7 25 14 N -
24.04.2018 13:00:00 18,8 13,7 9 5 17 9 N 0,0
24.04.2018 12:00:00 18,4 13,7 6 3 13 7 N 0,0
24.04.2018 11:00:00 16,9 13,6 1 1 8 5 N 0,0
24.04.2018 10:00:00 15,1 14,1 0 0 0 0 N 0,1
24.04.2018 09:00:00 13,9 13,1 0 0 0 0 N 0,0
24.04.2018 08:00:00 13,4 12,6 0 0 4 2 N -
24.04.2018 07:00:00 13,2 12,4 0 0 5 3 N 0,0
24.04.2018 06:00:00 13,2 12,4 1 1 5 3 N 0,0
24.04.2018 05:00:00 13,2 12,3 0 0 5 3 N 0,0
24.04.2018 04:00:00 13,2 12,1 0 0 3 2 N 0,0
24.04.2018 03:00:00 13,3 12,4 0 0 4 2 N 0,0
24.04.2018 02:00:00 13,3 12,2 0 0 0 0 N -
24.04.2018 01:00:00 13,3 12,0 0 0 0 0 N 0,0
24.04.2018 00:00:00 13,3 12,0 2 1 8 4 NNE 0,0
23.04.2018 23:00:00 13,4 12,0 4 2 8 4 N 0,0
23.04.2018 22:00:00 13,4 11,8 5 3 10 6 N 0,0
23.04.2018 21:00:00 13,5 11,7 5 3 12 7 NNW 0,0
23.04.2018 20:00:00 13,5 11,7 8 4 16 9 NNW -
23.04.2018 19:00:00 13,6 11,8 9 5 18 10 NNW 0,0
23.04.2018 18:00:00 13,8 12,0 9 5 21 11 N 0,0
23.04.2018 17:00:00 14,5 12,2 11 6 22 12 N 0,0
23.04.2018 16:00:00 15,5 13,0 7 4 14 8 N 0,0
23.04.2018 15:00:00 15,2 13,4 5 3 11 6 NNW 0,0
23.04.2018 14:00:00 14,2 12,6 7 4 16 9 NNW -
23.04.2018 13:00:00 14,1 12,7 10 5 16 9 NNE 0,0
23.04.2018 12:00:00 14,6 14,0 1 1 7 4 NNW 0,0
23.04.2018 11:00:00 13,7 13,1 0 0 0 0 N 0,0
23.04.2018 10:00:00 13,4 12,8 0 0 9 5 N 0,0
23.04.2018 09:00:00 13,1 12,5 4 2 9 5 NNW 0,1
23.04.2018 08:00:00 13,2 12,6 5 3 9 5 NNE -
23.04.2018 07:00:00 13,2 12,4 5 3 12 7 N 0,0
23.04.2018 06:00:00 13,4 12,5 8 4 13 7 N 0,0
23.04.2018 05:00:00 13,9 13,0 0 0 7 4 N 0,0
23.04.2018 04:00:00 13,9 13,0 0 0 6 4 N 0,0
23.04.2018 03:00:00 13,9 13,0 2 1 7 4 WSW 0,0
23.04.2018 02:00:00 14,0 13,1 0 0 0 0 N -
23.04.2018 01:00:00 13,9 13,0 0 0 7 4 N 0,0
23.04.2018 00:00:00 14,1 13,0 2 1 7 4 NNW 0,0
22.04.2018 23:00:00 14,5 13,2 3 1 10 5 NNW 0,0
22.04.2018 22:00:00 15,0 13,2 2 1 13 7 NNW 1,1
22.04.2018 21:00:00 16,3 12,7 3 1 11 6 SE 0,1
22.04.2018 20:00:00 18,2 10,6 6 4 18 10 NE -
22.04.2018 19:00:00 19,5 11,5 9 5 23 12 N 0,0
22.04.2018 18:00:00 20,1 11,8 8 4 21 11 NNW 0,0
22.04.2018 17:00:00 19,4 11,7 10 6 26 14 NNW 0,0
22.04.2018 16:00:00 20,2 12,7 9 5 27 15 N 0,0
22.04.2018 15:00:00 19,7 12,2 13 7 27 15 NNW 0,0
22.04.2018 14:00:00 20,6 11,8 14 8 30 16 N -
22.04.2018 13:00:00 24,8 13,1 7 4 19 10 WSW 0,0
22.04.2018 12:00:00 22,8 12,7 0 0 6 3 NNE 0,0
22.04.2018 11:00:00 21,1 12,8 0 0 5 3 N 0,0
22.04.2018 10:00:00 18,1 12,5 1 0 6 3 ENE 0,0
22.04.2018 09:00:00 15,0 11,0 4 2 18 10 SSW 0,0
22.04.2018 08:00:00 14,3 9,9 7 4 27 15 WSW -
22.04.2018 07:00:00 14,3 10,3 12 6 24 13 SSW 0,0
22.04.2018 06:00:00 14,4 9,6 5 3 19 11 SSW 0,0
22.04.2018 05:00:00 15,3 10,1 9 5 25 13 WSW 0,0
22.04.2018 04:00:00 15,5 9,8 13 7 26 14 SW 0,0
22.04.2018 03:00:00 16,7 10,3 7 4 16 9 SW 0,0
22.04.2018 02:00:00 16,8 10,0 2 1 13 7 WSW -
22.04.2018 01:00:00 17,3 9,7 4 2 13 7 SW 0,0
22.04.2018 00:00:00 18,4 9,7 5 3 15 8 WSW 0,0
21.04.2018 23:00:00 19,4 9,0 6 4 16 8 SW 0,0
21.04.2018 22:00:00 21,0 9,3 4 2 18 10 WNW 0,0
21.04.2018 21:00:00 20,8 9,1 1 0 9 5 S 0,0
21.04.2018 20:00:00 22,2 9,7 1 1 12 7 N -
21.04.2018 19:00:00 22,8 10,3 4 2 16 9 ENE 0,0
21.04.2018 18:00:00 23,5 9,9 8 4 28 15 E 0,0
21.04.2018 17:00:00 25,5 10,5 1 1 36 19 S 0,0
21.04.2018 16:00:00 25,5 9,3 12 6 36 19 WSW 0,0
21.04.2018 15:00:00 24,9 9,6 8 4 41 22 ENE 0,0
21.04.2018 14:00:00 24,3 9,5 13 7 37 20 E -
21.04.2018 13:00:00 23,9 9,9 8 4 32 18 WNW 0,0
21.04.2018 12:00:00 22,6 9,7 7 4 23 12 N 0,0
21.04.2018 11:00:00 21,2 9,5 6 3 27 15 W 0,0
21.04.2018 10:00:00 19,9 9,8 4 2 14 8 NNW 0,0
21.04.2018 09:00:00 17,5 8,9 8 4 22 12 SW 0,0
21.04.2018 08:00:00 16,4 8,1 2 1 19 10 NNW -
21.04.2018 07:00:00 16,5 8,0 2 1 17 9 NNE 0,0
21.04.2018 06:00:00 15,8 8,1 1 1 13 7 WNW 0,0
21.04.2018 05:00:00 15,2 9,1 3 1 15 8 W 0,0
21.04.2018 04:00:00 14,1 9,3 3 2 11 6 SSW 0,0
21.04.2018 03:00:00 15,0 10,0 4 2 19 10 WSW 0,0
21.04.2018 02:00:00 14,2 10,4 2 1 17 9 SW -
21.04.2018 01:00:00 13,3 10,3 4 2 15 8 WSW 0,0
21.04.2018 00:00:00 13,9 10,1 1 1 6 4 SSE 0,0
20.04.2018 23:00:00 15,1 9,9 0 0 7 4 WSW 0,0
20.04.2018 22:00:00 16,5 9,9 1 0 5 3 ENE 0,0

tt = Température de l'air
td = dewpoint
ff = Vitesse du vent
fx = gusts
dd = Direction du vent
rr = Quantités de précipitations

stations d'obs. à proximité